createdAt,value
2017-03-22T00:04:27.734Z,4.8
2017-03-22T00:14:39.413Z,4.9
2017-03-22T00:24:51.108Z,4.8
2017-03-22T00:35:02.800Z,4.8
2017-03-22T00:45:14.488Z,4.8
2017-03-22T00:55:26.151Z,4.5
2017-03-22T01:05:37.801Z,4.5
2017-03-22T01:15:49.541Z,4.1
2017-03-22T01:26:01.314Z,4.1
2017-03-22T01:36:13.114Z,4
2017-03-22T01:46:24.925Z,3.8
2017-03-22T01:56:36.774Z,3.9
2017-03-22T02:06:48.601Z,3.7
2017-03-22T02:17:00.457Z,3.8
2017-03-22T02:27:12.339Z,3.9
2017-03-22T02:37:24.220Z,3.9
2017-03-22T02:47:36.047Z,3.7
2017-03-22T02:57:47.869Z,3.7
2017-03-22T03:07:59.788Z,3.6
2017-03-22T03:18:11.668Z,3.5
2017-03-22T03:28:23.540Z,3.2
2017-03-22T03:38:35.457Z,3.2
2017-03-22T03:48:47.377Z,3.1
2017-03-22T03:58:59.337Z,3.1
2017-03-22T04:09:11.309Z,3
2017-03-22T04:19:23.290Z,2.8
2017-03-22T04:29:35.261Z,2.8
2017-03-22T04:39:47.261Z,2.7
2017-03-22T04:49:59.245Z,2.7
2017-03-22T05:00:11.195Z,2.7
2017-03-22T05:10:23.212Z,2.5
2017-03-22T05:20:35.233Z,2.5
2017-03-22T05:30:47.192Z,2.4
2017-03-22T05:40:59.164Z,2.4
2017-03-22T05:51:11.167Z,2.3
2017-03-22T06:01:23.129Z,2.3
2017-03-22T06:11:34.957Z,2.4
2017-03-22T06:21:46.615Z,2.6
2017-03-22T06:31:58.105Z,2.6
2017-03-22T06:42:09.430Z,2.7
2017-03-22T06:52:20.644Z,3
2017-03-22T07:02:31.714Z,3.6
2017-03-22T07:12:42.602Z,3.9
2017-03-22T07:22:53.243Z,4.3
2017-03-22T07:33:03.638Z,4.7
2017-03-22T07:43:13.832Z,5.2
2017-03-22T07:53:23.839Z,5.8
2017-03-22T08:03:33.650Z,6.4
2017-03-22T08:13:43.310Z,6.8
2017-03-22T08:23:52.846Z,7.9
2017-03-22T08:34:02.257Z,7.9
2017-03-22T08:44:11.549Z,8.2
2017-03-22T08:54:20.740Z,8
2017-03-22T09:04:29.937Z,8.2
2017-03-22T09:14:39.111Z,8
2017-03-22T09:24:48.300Z,8.1
2017-03-22T09:34:57.477Z,7.8
2017-03-22T09:45:06.638Z,8.4
2017-03-22T09:55:15.864Z,8.2
2017-03-22T10:05:25.081Z,8.8
2017-03-22T10:15:34.264Z,9.2
2017-03-22T10:25:43.405Z,10
2017-03-22T10:35:52.428Z,9.9
2017-03-22T10:46:01.484Z,10
2017-03-22T10:56:10.493Z,9.8
2017-03-22T11:06:19.514Z,9.9
2017-03-22T11:26:37.641Z,10.7
2017-03-22T11:36:46.578Z,11
2017-03-22T11:46:55.554Z,10.4
2017-03-22T11:57:04.806Z,9.4
2017-03-22T12:07:14.244Z,9.9
2017-03-22T12:17:23.753Z,10
2017-03-22T12:27:33.374Z,10.2
2017-03-22T12:37:42.993Z,10.1
2017-03-22T12:47:52.446Z,10
2017-03-22T12:58:01.737Z,10.6
2017-03-22T13:08:11.039Z,10.2
2017-03-22T13:18:20.327Z,10.7
2017-03-22T13:28:29.556Z,10.4
2017-03-22T13:38:38.832Z,10.9
2017-03-22T13:48:47.919Z,11.1
2017-03-22T13:58:56.881Z,10.9
2017-03-22T14:09:05.927Z,11.1
2017-03-22T14:19:15.022Z,10.9
2017-03-22T14:29:24.246Z,10.9
2017-03-22T14:39:33.742Z,10.4
2017-03-22T14:49:43.334Z,10.5
2017-03-22T14:59:53.060Z,10.5
2017-03-22T15:10:02.880Z,10.4
2017-03-22T15:20:12.797Z,10.7
2017-03-22T15:30:22.578Z,10.9
2017-03-22T15:40:32.300Z,10.7
2017-03-22T15:50:42.108Z,10.5
2017-03-22T16:00:52.032Z,10.6
2017-03-22T16:11:02.084Z,10.4
2017-03-22T16:21:12.224Z,10.5
2017-03-22T16:31:22.402Z,10.4
2017-03-22T16:41:32.632Z,10.5
2017-03-22T16:51:42.839Z,10.3
2017-03-22T17:01:53.116Z,10.3
2017-03-22T17:12:03.432Z,10.2
2017-03-22T17:22:13.803Z,10.1
2017-03-22T17:32:24.204Z,10.1
2017-03-22T17:42:34.644Z,9.9
2017-03-22T17:52:45.157Z,10
2017-03-22T18:02:55.716Z,9.8
2017-03-22T18:13:06.309Z,9.8
2017-03-22T18:23:16.968Z,9.7
2017-03-22T18:33:27.645Z,9.5
2017-03-22T18:43:38.336Z,9.4
2017-03-22T18:53:49.072Z,9.4
2017-03-22T19:03:59.828Z,9.2
2017-03-22T19:14:10.599Z,9.1
2017-03-22T19:24:21.470Z,9
2017-03-22T19:34:32.332Z,8.9
2017-03-22T19:44:43.161Z,8.8
2017-03-22T19:54:54.030Z,8.8
2017-03-22T20:05:04.899Z,8.8
2017-03-22T20:15:15.806Z,8.8
2017-03-22T20:25:26.669Z,8.8
2017-03-22T20:35:37.619Z,8.8
2017-03-22T20:45:48.626Z,8.7
2017-03-22T20:55:59.673Z,8.5
2017-03-22T21:06:10.751Z,8.1
2017-03-22T21:16:21.806Z,8.2
2017-03-22T21:26:32.932Z,8.3
2017-03-22T21:36:44.089Z,8.1
2017-03-22T21:46:55.309Z,7.9
2017-03-22T21:57:06.480Z,7.8
2017-03-22T22:07:17.720Z,7.8
2017-03-22T22:17:28.971Z,7.8
2017-03-22T22:27:40.179Z,7.7
2017-03-22T22:37:51.339Z,7.5
2017-03-22T22:48:02.489Z,7.5
2017-03-22T22:58:13.649Z,7.1
2017-03-22T23:08:24.807Z,7.1
2017-03-22T23:18:36.090Z,7
2017-03-22T23:28:47.264Z,7
2017-03-22T23:38:58.367Z,6.9
2017-03-22T23:49:09.506Z,6.9
2017-03-22T23:59:20.721Z,7
